Time;durP1;ratioP1;P1;durP2;ratioP2;P2;SDS_P1;SDS_P2;PMS_P1;PMS_P2;Temp;Humidity;BMP_temperature;BMP_pressure;BME280_temperature;BME280_humidity;BME280_pressure;Samples;Min_cycle;Max_cycle;Signal;HPM_P1;HPM_P2
2023/10/04 00:00:23;;;;;;;1.70;0.68;;;;;;;25.60;62.57;100569.16;7402192;19;20021;-84
2023/10/04 00:03:23;;;;;;;0.10;0.00;;;;;;;26.67;61.53;100571.72;7399721;19;20406;-84
2023/10/04 00:22:56;;;;;;;0.10;0.00;;;;;;;26.65;59.90;100558.00;7398912;19;20011;-84
2023/10/04 00:29:37;;;;;;;0.20;0.20;;;;;;;26.68;58.66;100538.97;7397407;19;20018;-84
2023/10/04 00:32:41;;;;;;;1.15;0.50;;;;;;;24.68;63.06;100544.94;7398797;19;20078;-84
2023/10/04 00:35:40;;;;;;;0.32;0.30;;;;;;;25.68;61.89;100558.53;7399722;19;20034;-84
2023/10/04 00:42:44;;;;;;;0.10;0.10;;;;;;;29.09;52.59;100531.28;7404602;19;20065;-84
2023/10/04 00:49:46;;;;;;;0.10;0.10;;;;;;;24.40;62.05;100536.31;7406292;19;20048;-84
2023/10/04 01:18:02;;;;;;;0.20;0.20;;;;;;;26.73;56.51;100553.06;7407888;19;20124;-81
2023/10/04 01:24:10;;;;;;;9.10;1.05;;;;;;;27.40;53.59;100539.25;7406679;19;20018;-82
2023/10/04 02:18:04;;;;;;;0.38;0.15;;;;;;;26.55;56.56;100554.19;7393847;19;20030;-64
2023/10/04 02:20:33;;;;;;;0.10;0.00;;;;;;;26.47;57.44;100544.06;7395764;19;20387;-64
2023/10/04 02:23:00;;;;;;;1.27;0.30;;;;;;;27.06;56.68;100536.84;7392868;19;20007;-64
2023/10/04 02:25:26;;;;;;;0.10;0.10;;;;;;;27.95;55.71;100542.84;7395137;19;20078;-64
2023/10/04 02:27:52;;;;;;;0.10;0.10;;;;;;;28.37;55.46;100532.28;7394203;19;20006;-62
2023/10/04 02:30:26;;;;;;;0.63;0.63;;;;;;;29.34;53.55;100534.88;7396817;19;20011;-63
2023/10/04 02:32:53;;;;;;;1.00;0.10;;;;;;;29.91;51.57;100534.56;7393401;19;20458;-64
2023/10/04 02:35:28;;;;;;;0.28;0.10;;;;;;;29.98;50.95;100528.72;7393157;19;20018;-63
2023/10/04 02:37:59;;;;;;;1.38;0.77;;;;;;;30.32;50.27;100530.00;7394132;19;20025;-62
2023/10/04 02:40:32;;;;;;;1.65;0.40;;;;;;;28.91;51.71;100532.63;7398880;19;20096;-63
2023/10/04 02:42:59;;;;;;;0.20;0.20;;;;;;;29.14;51.71;100533.94;7394930;19;20010;-64
2023/10/04 02:45:27;;;;;;;1.50;0.63;;;;;;;28.30;52.81;100538.84;7393489;19;20377;-63
2023/10/04 02:47:53;;;;;;;0.40;0.10;;;;;;;30.23;50.12;100547.91;7394341;19;20018;-64
2023/10/04 02:50:21;;;;;;;1.00;0.68;;;;;;;29.50;50.17;100541.97;7396027;19;20014;-63
2023/10/04 02:52:50;;;;;;;0.20;0.20;;;;;;;29.58;49.60;100544.75;7393405;19;20073;-63
2023/10/04 02:55:20;;;;;;;2.85;0.30;;;;;;;29.81;49.32;100543.13;7394411;19;20018;-64
2023/10/04 02:57:52;;;;;;;1.43;0.63;;;;;;;29.98;47.97;100540.22;7393119;19;20088;-64
2023/10/04 03:00:20;;;;;;;0.10;0.10;;;;;;;29.96;47.68;100542.94;7396675;19;20596;-64
2023/10/04 03:02:53;;;;;;;1.45;0.77;;;;;;;30.15;47.19;100541.53;7393001;19;20482;-63
2023/10/04 03:05:22;;;;;;;0.10;0.10;;;;;;;31.32;45.64;100534.19;7392333;19;20011;-64
2023/10/04 03:07:52;;;;;;;0.55;0.55;;;;;;;31.61;44.34;100540.72;7392760;19;20060;-64
2023/10/04 03:10:24;;;;;;;0.10;0.10;;;;;;;31.43;44.24;100539.38;7396433;19;20017;-64
2023/10/04 03:12:56;;;;;;;3.05;0.30;;;;;;;31.99;43.52;100537.03;7395596;19;20010;-64
2023/10/04 03:15:23;;;;;;;0.10;0.00;;;;;;;31.95;43.33;100536.75;7392434;19;20007;-64
2023/10/04 03:17:53;;;;;;;0.10;0.10;;;;;;;30.33;45.31;100540.13;7393733;19;20023;-64
2023/10/04 03:20:25;;;;;;;0.17;0.10;;;;;;;29.69;45.89;100536.34;7396796;19;20018;-64
2023/10/04 03:22:55;;;;;;;0.35;0.35;;;;;;;29.99;46.10;100523.75;7393184;19;20014;-64
2023/10/04 03:25:26;;;;;;;1.92;0.10;;;;;;;30.59;44.43;100528.56;7393392;19;20050;-64
2023/10/04 03:27:54;;;;;;;4.35;0.40;;;;;;;30.43;44.56;100535.94;7393177;19;20011;-64
2023/10/04 03:30:21;;;;;;;2.65;0.63;;;;;;;30.95;44.09;100533.53;7391125;19;20029;-64
2023/10/04 03:32:53;;;;;;;0.45;0.20;;;;;;;32.17;42.48;100523.97;7393120;19;20018;-64
2023/10/04 03:35:26;;;;;;;0.10;0.00;;;;;;;33.41;40.17;100516.75;7392853;19;20070;-64
2023/10/04 03:38:01;;;;;;;0.10;0.10;;;;;;;33.62;39.55;100510.94;7393002;19;20025;-63
2023/10/04 03:40:34;;;;;;;0.20;0.20;;;;;;;33.62;39.04;100505.16;7392095;19;20035;-64
2023/10/04 03:43:06;;;;;;;0.10;0.03;;;;;;;33.45;38.90;100499.66;7396380;19;20015;-64
2023/10/04 03:45:35;;;;;;;0.20;0.15;;;;;;;33.29;39.10;100513.03;7392254;19;20074;-63
2023/10/04 03:48:02;;;;;;;0.17;0.17;;;;;;;33.25;38.89;100509.88;7391802;19;20348;-63
2023/10/04 03:50:31;;;;;;;0.10;0.10;;;;;;;33.34;38.01;100503.25;7390063;19;20404;-64
2023/10/04 03:52:57;;;;;;;0.10;0.10;;;;;;;33.81;37.74;100501.34;7391823;19;20006;-63
2023/10/04 03:55:27;;;;;;;0.10;0.10;;;;;;;33.92;37.56;100506.38;7393472;19;20373;-64
2023/10/04 03:57:56;;;;;;;0.30;0.30;;;;;;;34.25;37.41;100501.28;7393360;19;20018;-64
2023/10/04 04:00:23;;;;;;;0.20;0.10;;;;;;;34.13;36.77;100500.53;7392845;19;20340;-63
2023/10/04 04:02:50;;;;;;;0.43;0.20;;;;;;;33.53;37.27;100497.34;7392636;19;20482;-64
2023/10/04 04:05:21;;;;;;;0.10;0.10;;;;;;;33.12;38.19;100499.63;7402588;19;20370;-64
2023/10/04 04:07:48;;;;;;;0.10;0.10;;;;;;;32.12;39.36;100499.09;7398940;19;20011;-64
2023/10/04 04:10:16;;;;;;;1.00;0.60;;;;;;;31.47;40.49;100501.50;7398901;19;20034;-64
2023/10/04 04:12:42;;;;;;;0.35;0.28;;;;;;;32.25;39.74;100501.47;7403031;19;20014;-63
2023/10/04 04:15:10;;;;;;;0.73;0.45;;;;;;;31.04;41.23;100503.25;7402515;19;20092;-64
2023/10/04 04:17:37;;;;;;;0.10;0.10;;;;;;;30.77;41.32;100508.34;7399093;19;20027;-64
2023/10/04 04:20:23;;;;;;;0.63;0.30;;;;;;;30.63;42.23;100510.88;7398201;19;20031;-64
2023/10/04 04:22:53;;;;;;;0.75;0.75;;;;;;;29.86;42.81;100507.66;7400160;19;20022;-64
2023/10/04 04:25:23;;;;;;;0.95;0.10;;;;;;;31.36;41.17;100505.72;7402992;19;20003;-64
2023/10/04 04:27:53;;;;;;;0.22;0.22;;;;;;;31.57;40.28;100508.00;7399365;19;20014;-64
2023/10/04 04:30:23;;;;;;;0.10;0.10;;;;;;;29.90;42.28;100515.81;7398295;19;20035;-64
2023/10/04 04:32:52;;;;;;;0.43;0.38;;;;;;;32.83;38.99;100514.25;7399119;19;20010;-63
2023/10/04 04:35:32;;;;;;;0.57;0.30;;;;;;;31.29;40.48;100513.13;7402659;19;20049;-64
2023/10/04 04:38:08;;;;;;;0.15;0.10;;;;;;;31.23;40.23;100511.94;7399917;19;20077;-63
2023/10/04 04:40:35;;;;;;;2.08;0.88;;;;;;;30.59;40.82;100517.06;7398603;19;20027;-63
2023/10/04 04:43:18;;;;;;;0.10;0.10;;;;;;;30.97;40.98;100516.41;7399750;19;20031;-63
2023/10/04 04:45:50;;;;;;;0.10;0.10;;;;;;;31.02;40.55;100515.38;7398131;19;20026;-64
2023/10/04 04:48:23;;;;;;;0.20;0.20;;;;;;;31.38;39.83;100514.50;7398711;19;20016;-64
2023/10/04 04:50:54;;;;;;;0.22;0.22;;;;;;;30.98;40.75;100506.44;7395722;19;20463;-63
2023/10/04 04:53:24;;;;;;;;;;;;;;;30.96;40.49;100503.41;7398845;19;20707;-63
2023/10/04 04:55:51;;;;;;;0.10;0.10;;;;;;;32.44;39.08;100510.06;7398355;19;19919;-63
2023/10/04 04:58:22;;;;;;;1.65;0.20;;;;;;;33.09;38.10;100512.44;7397950;19;20487;-63
2023/10/04 05:00:55;;;;;;;0.20;0.20;;;;;;;34.48;37.00;100517.91;7397980;19;20011;-63
2023/10/04 05:03:24;;;;;;;0.30;0.30;;;;;;;34.99;35.95;100510.94;7396906;19;20027;-63
2023/10/04 05:05:50;;;;;;;0.20;0.20;;;;;;;36.04;34.83;100514.97;7399694;19;20014;-63
2023/10/04 05:08:17;;;;;;;0.10;0.10;;;;;;;36.35;34.26;100508.69;7399414;19;20007;-64
2023/10/04 05:10:45;;;;;;;1.10;0.57;;;;;;;36.71;33.61;100509.94;7395601;19;20014;-63
2023/10/04 05:13:14;;;;;;;0.10;0.00;;;;;;;36.90;33.67;100509.50;7402006;19;20036;-64
2023/10/04 05:15:42;;;;;;;0.10;0.10;;;;;;;37.12;33.24;100511.38;7398502;19;20018;-63
2023/10/04 05:18:21;;;;;;;0.10;0.10;;;;;;;37.32;33.46;100510.94;7398902;19;20007;-63
2023/10/04 05:20:51;;;;;;;1.15;0.38;;;;;;;37.51;32.69;100505.38;7399379;19;20021;-63
2023/10/04 05:23:25;;;;;;;0.32;0.20;;;;;;;37.72;32.66;100501.31;7398439;19;20351;-63
2023/10/04 05:25:52;;;;;;;0.20;0.20;;;;;;;37.97;31.86;100490.22;7398545;19;20010;-64
2023/10/04 05:28:19;;;;;;;0.10;0.10;;;;;;;37.99;31.91;100504.09;7398363;19;20573;-64
2023/10/04 05:30:46;;;;;;;0.17;0.10;;;;;;;37.96;31.83;100499.63;7396255;19;20027;-64
2023/10/04 05:33:13;;;;;;;2.45;0.47;;;;;;;37.95;31.92;100487.22;7398503;19;20011;-64
2023/10/04 05:35:41;;;;;;;0.10;0.10;;;;;;;38.12;31.88;100488.72;7396646;19;20010;-63
2023/10/04 05:38:08;;;;;;;0.40;0.10;;;;;;;38.28;31.50;100491.66;7396652;19;20015;-64
2023/10/04 05:40:35;;;;;;;0.30;0.30;;;;;;;37.80;31.56;100490.09;7395551;19;20022;-65
2023/10/04 05:43:05;;;;;;;1.65;0.17;;;;;;;37.65;31.72;100487.88;7397839;19;20025;-65
2023/10/04 05:45:32;;;;;;;0.20;0.20;;;;;;;37.67;31.89;100496.72;7402197;19;20015;-65
2023/10/04 05:47:59;;;;;;;0.35;0.10;;;;;;;37.63;31.56;100493.59;7396536;19;20011;-64
2023/10/04 05:50:26;;;;;;;0.10;0.10;;;;;;;37.54;31.81;100491.69;7395573;19;20021;-65
2023/10/04 05:52:53;;;;;;;0.20;0.20;;;;;;;37.70;31.55;100484.53;7397136;19;20527;-64
2023/10/04 05:55:21;;;;;;;0.10;0.00;;;;;;;37.42;31.65;100483.16;7401423;19;20014;-64
2023/10/04 05:57:50;;;;;;;0.50;0.50;;;;;;;37.45;31.37;100489.81;7397631;19;20090;-64
2023/10/04 06:03:06;;;;;;;0.10;0.10;;;;;;;36.62;32.10;100502.19;7397499;19;20026;-65
2023/10/04 06:05:37;;;;;;;0.10;0.10;;;;;;;36.68;31.59;100506.16;7397069;19;20010;-64
2023/10/04 06:08:11;;;;;;;0.10;0.10;;;;;;;33.14;34.83;100502.66;7397254;19;20325;-65
2023/10/04 06:10:38;;;;;;;0.10;0.00;;;;;;;33.51;34.75;100502.97;7394723;19;20014;-65
2023/10/04 06:13:14;;;;;;;0.17;0.17;;;;;;;31.39;37.15;100519.66;7398211;19;20018;-65
2023/10/04 06:15:46;;;;;;;0.10;0.10;;;;;;;31.47;37.81;100513.75;7394847;19;20027;-65
2023/10/04 06:18:13;;;;;;;0.10;0.00;;;;;;;33.26;36.29;100503.50;7395376;19;20363;-64
2023/10/04 06:20:40;;;;;;;0.10;0.10;;;;;;;32.17;37.58;100500.88;7395585;19;20007;-65
2023/10/04 06:23:09;;;;;;;0.10;0.10;;;;;;;29.83;40.15;100511.69;7396081;19;20373;-65
2023/10/04 06:25:40;;;;;;;0.15;0.13;;;;;;;32.39;37.26;100505.34;7397472;19;20010;-65
2023/10/04 06:28:07;;;;;;;0.20;0.20;;;;;;;33.36;36.20;100498.38;7395115;19;20018;-66
2023/10/04 06:30:35;;;;;;;0.10;0.00;;;;;;;33.53;36.11;100497.34;7394960;19;20011;-65
2023/10/04 06:33:03;;;;;;;1.83;1.13;;;;;;;34.15;35.16;100506.44;7396844;19;20011;-66
2023/10/04 06:35:32;;;;;;;0.10;0.10;;;;;;;35.04;34.54;100506.94;7400870;19;20010;-65
2023/10/04 06:38:01;;;;;;;0.10;0.10;;;;;;;34.54;34.91;100504.59;7395500;19;20352;-65
2023/10/04 06:40:31;;;;;;;0.17;0.05;;;;;;;34.06;35.66;100499.41;7394974;19;20100;-65
2023/10/04 06:42:59;;;;;;;0.32;0.08;;;;;;;34.76;34.79;100496.53;7395318;19;20010;-65
2023/10/04 06:45:27;;;;;;;0.10;0.00;;;;;;;34.02;35.53;100496.25;7400213;19;20035;-65
2023/10/04 06:47:55;;;;;;;0.10;0.10;;;;;;;34.52;34.95;100500.84;7395746;19;20083;-64
2023/10/04 06:50:28;;;;;;;0.10;0.10;;;;;;;34.28;35.28;100502.94;7393958;19;20010;-65
2023/10/04 06:53:01;;;;;;;0.45;0.30;;;;;;;34.81;35.12;100504.06;7395974;19;20048;-65
2023/10/04 06:55:27;;;;;;;0.05;0.00;;;;;;;35.63;34.03;100506.09;7399938;19;20480;-65
2023/10/04 06:57:54;;;;;;;0.10;0.10;;;;;;;35.54;34.14;100504.13;7395702;19;20015;-64
2023/10/04 07:00:35;;;;;;;2.28;0.63;;;;;;;35.36;34.45;100505.19;7393925;19;20074;-64
2023/10/04 07:03:03;;;;;;;0.15;0.10;;;;;;;35.00;34.74;100503.78;7395500;19;20458;-64
2023/10/04 07:05:35;;;;;;;1.08;0.65;;;;;;;34.76;34.90;100502.31;7400050;19;20346;-65
2023/10/04 07:08:04;;;;;;;0.00;0.00;;;;;;;34.91;34.79;100499.63;7394227;19;20014;-65
2023/10/04 07:10:31;;;;;;;0.17;0.17;;;;;;;35.19;34.54;100497.72;7393596;19;20014;-64
2023/10/04 07:12:58;;;;;;;1.75;0.30;;;;;;;35.35;34.39;100504.44;7397411;19;20396;-65
2023/10/04 07:15:27;;;;;;;0.73;0.65;;;;;;;37.19;33.13;100495.03;7398431;19;20006;-64
2023/10/04 07:17:54;;;;;;;1.85;0.38;;;;;;;38.21;31.85;100493.50;7393400;19;20040;-65
2023/10/04 07:20:24;;;;;;;0.10;0.10;;;;;;;38.38;31.49;100501.63;7392646;19;20021;-65
2023/10/04 07:22:58;;;;;;;0.10;0.10;;;;;;;38.90;30.95;100499.59;7395047;19;20463;-65
2023/10/04 07:25:28;;;;;;;0.10;0.05;;;;;;;39.25;30.60;100506.25;7398914;19;20023;-65
2023/10/04 07:28:02;;;;;;;0.10;0.10;;;;;;;39.36;30.17;100492.84;7394391;19;20044;-66
2023/10/04 07:30:30;;;;;;;0.10;0.00;;;;;;;39.58;30.00;100502.56;7392628;19;20348;-66
2023/10/04 07:32:59;;;;;;;2.45;0.28;;;;;;;39.99;29.64;100511.53;7395077;19;20038;-65
2023/10/04 07:35:27;;;;;;;8.85;0.40;;;;;;;39.83;29.81;100510.84;7399204;19;20018;-65
2023/10/04 07:37:55;;;;;;;0.10;0.00;;;;;;;39.61;29.48;100512.91;7393620;19;20014;-65
2023/10/04 07:40:23;;;;;;;0.17;0.17;;;;;;;38.52;30.40;100507.34;7392228;19;20018;-65
2023/10/04 07:42:54;;;;;;;0.47;0.47;;;;;;;38.78;30.09;100516.53;7394493;19;20002;-63
2023/10/04 07:45:28;;;;;;;0.10;0.08;;;;;;;38.78;30.17;100516.53;7397482;19;20094;-65
2023/10/04 07:47:56;;;;;;;5.55;0.95;;;;;;;39.64;29.14;100517.38;7393120;19;20035;-65
2023/10/04 07:50:23;;;;;;;2.17;0.65;;;;;;;39.88;29.34;100524.19;7391120;19;20011;-65
2023/10/04 07:52:51;;;;;;;1.75;0.80;;;;;;;40.41;28.88;100526.28;7393852;19;20010;-64
2023/10/04 07:55:18;;;;;;;0.40;0.20;;;;;;;40.73;28.65;100518.72;7396494;19;20086;-66
2023/10/04 07:57:48;;;;;;;0.10;0.10;;;;;;;40.72;28.61;100515.06;7393761;19;20030;-65
2023/10/04 08:00:16;;;;;;;0.20;0.10;;;;;;;40.60;28.49;100516.78;7393105;19;20066;-64
2023/10/04 08:02:50;;;;;;;0.47;0.47;;;;;;;40.18;28.67;100518.09;7393595;19;20082;-65
2023/10/04 08:05:31;;;;;;;0.32;0.20;;;;;;;40.24;28.50;100524.91;7397486;19;20014;-63
2023/10/04 08:07:58;;;;;;;0.43;0.25;;;;;;;40.24;28.33;100521.25;7391390;19;20019;-65
2023/10/04 08:10:31;;;;;;;0.30;0.30;;;;;;;40.28;28.54;100512.63;7388462;19;20007;-63
2023/10/04 08:12:59;;;;;;;3.53;1.52;;;;;;;40.44;28.30;100519.09;7395349;19;20015;-65
2023/10/04 08:15:28;;;;;;;2.47;1.10;;;;;;;40.74;28.26;100520.25;7397234;19;20421;-65
2023/10/04 08:17:55;;;;;;;0.65;0.30;;;;;;;40.93;28.24;100522.41;7392141;19;20014;-65
2023/10/04 08:20:24;;;;;;;0.52;0.32;;;;;;;40.65;28.29;100522.09;7392354;19;20443;-65
2023/10/04 08:22:50;;;;;;;1.20;0.40;;;;;;;40.80;27.80;100526.28;7391988;19;20018;-66
2023/10/04 08:25:21;;;;;;;0.75;0.40;;;;;;;40.50;28.39;100514.22;7396297;19;20018;-65
2023/10/04 08:27:48;;;;;;;0.30;0.28;;;;;;;40.37;28.04;100514.44;7391675;19;20010;-63
2023/10/04 08:30:16;;;;;;;5.18;0.95;;;;;;;39.97;28.82;100510.66;7390400;19;20028;-65
2023/10/04 08:32:50;;;;;;;6.10;0.73;;;;;;;38.92;29.83;100508.44;7392605;19;20025;-64
2023/10/04 08:35:33;;;;;;;0.25;0.15;;;;;;;39.21;29.33;100517.75;7396329;19;20010;-63
2023/10/04 08:38:00;;;;;;;4.88;0.70;;;;;;;39.24;29.45;100510.59;7392347;19;20011;-64
2023/10/04 08:40:28;;;;;;;0.73;0.40;;;;;;;39.44;29.47;100504.84;7392772;19;20011;-65
2023/10/04 08:42:56;;;;;;;1.88;0.35;;;;;;;40.97;28.77;100507.94;7393777;19;20082;-63
2023/10/04 08:45:24;;;;;;;1.77;0.15;;;;;;;41.36;27.61;100504.94;7396272;19;20098;-63
2023/10/04 08:47:57;;;;;;;0.10;0.10;;;;;;;41.50;27.77;100508.31;7392470;19;20011;-63
2023/10/04 08:50:44;;;;;;;0.30;0.30;;;;;;;41.74;27.19;100510.56;7393596;19;20019;-63
2023/10/04 08:53:21;;;;;;;0.73;0.20;;;;;;;41.64;27.20;100516.81;7399366;19;20010;-63
2023/10/04 08:55:56;;;;;;;1.58;0.43;;;;;;;41.88;27.22;100505.16;7399797;19;20017;-63
2023/10/04 08:58:22;;;;;;;0.20;0.20;;;;;;;41.90;27.13;100508.91;7399342;19;20015;-63
2023/10/04 09:00:50;;;;;;;0.20;0.20;;;;;;;41.80;27.27;100504.91;7399610;19;20011;-63
2023/10/04 09:03:19;;;;;;;0.30;0.30;;;;;;;42.25;27.14;100499.03;7398104;19;20035;-63
2023/10/04 09:05:46;;;;;;;0.38;0.30;;;;;;;42.83;26.35;100506.56;7401953;19;20031;-63
2023/10/04 09:08:17;;;;;;;1.33;0.38;;;;;;;42.88;26.78;100507.47;7402614;19;20043;-60
2023/10/04 09:10:44;;;;;;;;;;;;;;;42.80;26.45;100496.22;7397537;19;20014;-60
2023/10/04 09:13:10;;;;;;;2.30;0.73;;;;;;;42.65;26.39;100497.28;7397406;19;20336;-60
2023/10/04 09:15:37;;;;;;;0.93;0.40;;;;;;;42.95;26.19;100495.19;7396427;19;20026;-60
2023/10/04 09:18:04;;;;;;;0.70;0.70;;;;;;;42.81;26.58;100503.59;7396284;19;20027;-61
2023/10/04 09:20:32;;;;;;;2.63;0.55;;;;;;;42.28;26.38;100494.69;7395366;19;20463;-60
2023/10/04 09:22:59;;;;;;;1.40;0.25;;;;;;;41.97;26.74;100504.00;7396953;19;20023;-60
2023/10/04 09:25:39;;;;;;;2.08;0.45;;;;;;;41.89;26.75;100512.53;7400085;19;20010;-60
2023/10/04 09:28:09;;;;;;;0.73;0.43;;;;;;;42.06;26.57;100508.69;7396320;19;20045;-60
2023/10/04 09:30:39;;;;;;;3.58;0.52;;;;;;;42.30;26.77;100503.53;7393145;19;20459;-60
2023/10/04 09:33:20;;;;;;;0.22;0.22;;;;;;;42.52;26.51;100501.28;7398349;19;20033;-60
2023/10/04 09:35:47;;;;;;;4.97;0.75;;;;;;;43.00;26.99;100501.91;7397924;19;20403;-60
2023/10/04 09:38:17;;;;;;;10.30;1.08;;;;;;;43.20;26.86;100490.72;7399888;19;20087;-60
2023/10/04 09:40:54;;;;;;;1.00;0.45;;;;;;;43.40;26.39;100490.50;7398059;19;20006;-60
2023/10/04 09:43:39;;;;;;;4.35;0.85;;;;;;;43.43;26.16;100495.72;7399935;19;20014;-60
2023/10/04 09:46:09;;;;;;;4.38;0.98;;;;;;;43.43;25.89;100489.09;7396765;19;20044;-61
2023/10/04 09:48:37;;;;;;;0.00;0.00;;;;;;;43.53;26.17;100498.16;7397927;19;20048;-61
2023/10/04 09:51:07;;;;;;;0.17;0.17;;;;;;;43.25;25.52;100498.22;7395144;19;20024;-62
2023/10/04 09:53:41;;;;;;;0.52;0.10;;;;;;;43.33;25.71;100491.81;7397751;19;20358;-60
2023/10/04 09:56:11;;;;;;;0.00;0.00;;;;;;;43.38;25.82;100493.41;7397081;19;20019;-61
2023/10/04 09:58:50;;;;;;;6.13;1.67;;;;;;;43.33;25.05;100480.81;7396242;19;20475;-62
2023/10/04 10:01:19;;;;;;;0.30;0.30;;;;;;;43.20;25.50;100478.25;7395011;19;20380;-61
2023/10/04 10:03:56;;;;;;;3.40;0.63;;;;;;;43.47;25.73;100477.50;7397296;19;20360;-60
2023/10/04 10:06:26;;;;;;;6.88;0.30;;;;;;;43.61;25.39;100480.75;7397331;19;20336;-60
2023/10/04 10:09:02;;;;;;;0.20;0.20;;;;;;;43.79;25.87;100483.41;7397244;19;20473;-60
2023/10/04 10:11:30;;;;;;;0.73;0.35;;;;;;;43.63;25.26;100477.88;7396534;19;20018;-60
2023/10/04 10:13:58;;;;;;;0.52;0.10;;;;;;;43.28;25.76;100478.47;7400473;19;20459;-61
2023/10/04 10:16:26;;;;;;;0.30;0.25;;;;;;;43.20;25.39;100484.09;7398633;19;20022;-61
2023/10/04 10:18:57;;;;;;;0.10;0.00;;;;;;;43.09;25.21;100486.03;7396611;19;20476;-62
2023/10/04 10:21:43;;;;;;;;;;;;;;;42.90;25.52;100487.75;7397433;19;20015;-61
2023/10/04 10:24:14;;;;;;;0.38;0.20;;;;;;;42.76;25.61;100478.53;7396578;19;19911;-60
2023/10/04 10:26:41;;;;;;;0.40;0.30;;;;;;;43.03;25.44;100476.34;7394654;19;20055;-61
2023/10/04 10:29:20;;;;;;;3.42;0.40;;;;;;;43.17;25.34;100477.44;7398966;19;20006;-62
2023/10/04 10:31:53;;;;;;;0.10;0.10;;;;;;;42.85;25.91;100468.53;7395805;19;20363;-62
2023/10/04 10:34:20;;;;;;;0.17;0.10;;;;;;;42.73;25.50;100471.13;7395616;19;20014;-61
2023/10/04 10:36:53;;;;;;;0.85;0.85;;;;;;;42.46;25.88;100474.75;7395089;19;20014;-59
2023/10/04 10:39:20;;;;;;;0.90;0.47;;;;;;;42.66;25.44;100475.34;7395396;19;20014;-61
2023/10/04 10:41:46;;;;;;;0.28;0.10;;;;;;;42.10;25.99;100468.59;7400477;19;20014;-61
2023/10/04 10:44:19;;;;;;;0.70;0.20;;;;;;;41.79;25.71;100474.16;7395276;19;20024;-59
2023/10/04 10:46:55;;;;;;;0.30;0.25;;;;;;;41.64;26.24;100472.19;7392070;19;20006;-60
2023/10/04 10:49:41;;;;;;;0.32;0.20;;;;;;;41.62;26.09;100457.50;7391688;19;20011;-59
2023/10/04 10:52:20;;;;;;;0.88;0.50;;;;;;;41.66;26.08;100460.56;7390717;19;20031;-58
2023/10/04 10:54:47;;;;;;;2.55;0.70;;;;;;;41.59;26.58;100462.53;7393387;19;20017;-61
2023/10/04 10:57:14;;;;;;;0.52;0.22;;;;;;;41.58;25.83;100472.00;7395200;19;20025;-61
2023/10/04 10:59:40;;;;;;;0.90;0.43;;;;;;;41.43;26.45;100468.59;7393095;19;20019;-61
2023/10/04 11:02:06;;;;;;;0.20;0.20;;;;;;;41.66;26.06;100463.50;7393477;19;20049;-60
2023/10/04 11:04:32;;;;;;;2.40;0.30;;;;;;;41.71;26.05;100459.28;7393784;19;20010;-61
2023/10/04 11:06:59;;;;;;;2.47;0.88;;;;;;;41.88;26.31;100455.41;7395671;19;20034;-60
2023/10/04 11:09:26;;;;;;;1.98;0.73;;;;;;;41.81;26.47;100453.72;7393762;19;20018;-61
2023/10/04 11:11:53;;;;;;;0.55;0.22;;;;;;;42.15;25.98;100454.78;7395263;19;20021;-61
2023/10/04 11:14:20;;;;;;;0.30;0.20;;;;;;;42.30;25.56;100450.81;7393962;19;20082;-61
2023/10/04 11:16:47;;;;;;;0.43;0.10;;;;;;;42.04;25.63;100450.06;7393290;19;20017;-62
2023/10/04 11:19:15;;;;;;;3.40;0.68;;;;;;;42.18;25.27;100456.34;7395149;19;20014;-63
2023/10/04 11:21:44;;;;;;;2.30;0.28;;;;;;;42.05;25.62;100449.38;7395094;19;20048;-61
2023/10/04 11:24:11;;;;;;;0.63;0.10;;;;;;;41.93;25.95;100442.41;7393066;19;20015;-60
2023/10/04 11:26:42;;;;;;;1.05;0.28;;;;;;;41.97;25.87;100445.44;7393729;19;20446;-60
2023/10/04 11:29:09;;;;;;;;;;;;;;;41.80;25.79;100450.03;7394499;19;20486;-60
2023/10/04 11:31:35;;;;;;;0.25;0.25;;;;;;;41.60;26.18;100454.50;7392342;19;19919;-60
2023/10/04 11:34:04;;;;;;;0.88;0.40;;;;;;;41.62;25.92;100437.00;7392564;19;20010;-60
2023/10/04 11:36:34;;;;;;;0.20;0.20;;;;;;;41.58;26.13;100449.34;7393619;19;20487;-60
2023/10/04 11:39:06;;;;;;;;;;;;;;;41.20;26.18;100451.72;7394051;19;20126;-59
2023/10/04 11:41:32;;;;;;;0.00;0.00;;;;;;;41.55;25.87;100445.59;7392511;19;19917;-60
2023/10/04 11:44:03;;;;;;;1.27;0.43;;;;;;;41.97;26.00;100448.38;7391998;19;20014;-60
2023/10/04 11:46:29;;;;;;;0.30;0.15;;;;;;;42.43;26.10;100446.81;7392153;19;20010;-60
2023/10/04 11:49:11;;;;;;;0.90;0.43;;;;;;;42.48;26.25;100447.69;7391370;19;20022;-60
2023/10/04 11:51:39;;;;;;;3.10;0.52;;;;;;;42.58;25.84;100434.06;7397206;19;20559;-60
2023/10/04 11:54:05;;;;;;;0.40;0.22;;;;;;;42.55;25.74;100417.91;7393210;19;20474;-60
2023/10/04 11:56:41;;;;;;;5.07;0.45;;;;;;;42.81;26.00;100427.38;7393504;19;20013;-61
2023/10/04 11:59:08;;;;;;;0.73;0.08;;;;;;;42.97;25.38;100421.94;7393412;19;20022;-61
2023/10/04 12:01:44;;;;;;;1.05;0.35;;;;;;;42.86;25.15;100411.41;7396105;19;20019;-60
2023/10/04 12:04:16;;;;;;;2.78;0.80;;;;;;;42.78;25.28;100417.03;7392821;19;20022;-60
2023/10/04 12:06:44;;;;;;;0.20;0.10;;;;;;;42.62;25.73;100404.16;7394311;19;20011;-60
2023/10/04 12:09:11;;;;;;;0.20;0.20;;;;;;;42.00;25.78;100417.72;7392956;19;20108;-60
2023/10/04 12:11:38;;;;;;;4.57;0.65;;;;;;;41.71;25.70;100415.38;7395965;19;20856;-61
2023/10/04 12:14:06;;;;;;;3.72;0.20;;;;;;;41.49;25.91;100412.47;7391026;19;20015;-60
2023/10/04 12:16:33;;;;;;;0.38;0.30;;;;;;;41.65;26.07;100412.25;7392783;19;20014;-61
2023/10/04 12:19:01;;;;;;;7.68;0.80;;;;;;;41.68;26.17;100410.88;7391599;19;20038;-60
2023/10/04 12:21:27;;;;;;;2.45;0.40;;;;;;;41.71;26.33;100397.81;7392900;19;20025;-60
2023/10/04 12:23:53;;;;;;;0.30;0.20;;;;;;;41.34;25.91;100390.81;7392109;19;20078;-60
2023/10/04 12:26:20;;;;;;;4.25;0.65;;;;;;;41.30;26.64;100393.59;7397149;19;20035;-60
2023/10/04 12:28:48;;;;;;;0.20;0.20;;;;;;;41.74;26.00;100396.44;7399707;19;20010;-59
2023/10/04 12:31:15;;;;;;;1.20;0.65;;;;;;;42.01;26.03;100389.94;7396806;19;20018;-60
2023/10/04 12:33:41;;;;;;;2.80;0.35;;;;;;;42.01;25.58;100384.09;7400750;19;20474;-60
2023/10/04 12:36:07;;;;;;;0.25;0.10;;;;;;;41.75;25.75;100392.09;7400312;19;20036;-60
2023/10/04 12:38:34;;;;;;;0.57;0.47;;;;;;;41.52;26.13;100381.84;7398723;19;20021;-60
2023/10/04 12:41:00;;;;;;;0.95;0.30;;;;;;;41.56;26.23;100376.88;7400682;19;20018;-60
2023/10/04 12:43:26;;;;;;;0.10;0.10;;;;;;;41.90;26.08;100385.22;7398827;19;20022;-60
2023/10/04 12:45:53;;;;;;;1.10;0.40;;;;;;;41.93;26.23;100372.16;7399703;19;20030;-62
2023/10/04 12:48:20;;;;;;;0.25;0.20;;;;;;;41.14;26.54;100381.38;7395879;19;20018;-60
2023/10/04 12:50:46;;;;;;;0.63;0.10;;;;;;;40.29;26.92;100379.81;7393597;19;20034;-60
2023/10/04 12:53:14;;;;;;;3.75;0.55;;;;;;;39.58;27.55;100385.91;7395484;19;20086;-61
2023/10/04 12:55:41;;;;;;;1.45;0.57;;;;;;;37.39;30.03;100379.06;7397907;19;20014;-62
2023/10/04 12:58:07;;;;;;;0.40;0.13;;;;;;;38.33;29.21;100386.44;7398527;19;20010;-60
2023/10/04 13:00:33;;;;;;;0.30;0.10;;;;;;;37.31;30.08;100382.31;7397595;19;20468;-59
2023/10/04 13:03:00;;;;;;;0.63;0.38;;;;;;;34.76;32.53;100383.66;7399163;19;20011;-60
2023/10/04 13:05:27;;;;;;;2.95;0.20;;;;;;;34.32;33.96;100391.16;7399019;19;20077;-61
2023/10/04 13:07:54;;;;;;;9.95;0.45;;;;;;;32.37;36.90;100386.22;7401345;19;20010;-61
2023/10/04 13:10:22;;;;;;;1.65;0.30;;;;;;;33.59;35.19;100390.84;7399997;19;20019;-60
2023/10/04 13:12:48;;;;;;;3.72;0.55;;;;;;;33.74;35.40;100380.94;7400714;19;20017;-60
2023/10/04 13:15:15;;;;;;;8.20;0.55;;;;;;;33.66;35.14;100371.78;7398807;19;20048;-60
2023/10/04 13:17:43;;;;;;;4.15;1.38;;;;;;;32.97;36.14;100378.03;7398272;19;20618;-61
2023/10/04 13:20:16;;;;;;;5.47;0.45;;;;;;;32.29;36.91;100369.16;7396098;19;20015;-61
2023/10/04 13:22:44;;;;;;;1.00;0.20;;;;;;;32.12;37.24;100361.50;7401632;19;20031;-58
2023/10/04 13:25:11;;;;;;;6.90;0.80;;;;;;;35.03;34.52;100363.53;7395944;19;20078;-60
2023/10/04 13:27:37;;;;;;;1.23;0.40;;;;;;;36.80;32.33;100361.59;7397651;19;20019;-60
2023/10/04 13:30:05;;;;;;;0.80;0.22;;;;;;;37.00;32.08;100356.84;7396020;19;20051;-60
2023/10/04 13:32:32;;;;;;;0.73;0.40;;;;;;;34.03;34.17;100375.56;7401632;19;20342;-61